sensor_id;sensor_type;location;lat;lon;timestamp;P1;durP1;ratioP1;P2;durP2;ratioP2
37655;SDS011;23498;50.958;3.124;2024-02-26T00:00:20;3.35;;;1.95;;
37655;SDS011;23498;50.958;3.124;2024-02-26T00:03:19;3.70;;;2.00;;
37655;SDS011;23498;50.958;3.124;2024-02-26T00:05:45;3.97;;;2.10;;
37655;SDS011;23498;50.958;3.124;2024-02-26T00:08:18;4.15;;;2.30;;
37655;SDS011;23498;50.958;3.124;2024-02-26T00:11:11;7.38;;;2.20;;
37655;SDS011;23498;50.958;3.124;2024-02-26T00:14:32;3.88;;;1.88;;
37655;SDS011;23498;50.958;3.124;2024-02-26T00:17:31;3.72;;;2.20;;
37655;SDS011;23498;50.958;3.124;2024-02-26T00:20:35;4.57;;;2.30;;
37655;SDS011;23498;50.958;3.124;2024-02-26T00:26:03;3.67;;;2.55;;
37655;SDS011;23498;50.958;3.124;2024-02-26T00:29:01;5.25;;;2.92;;
37655;SDS011;23498;50.958;3.124;2024-02-26T00:32:19;4.20;;;2.35;;
37655;SDS011;23498;50.958;3.124;2024-02-26T00:35:14;6.68;;;2.33;;
37655;SDS011;23498;50.958;3.124;2024-02-26T00:37:50;5.47;;;2.25;;
37655;SDS011;23498;50.958;3.124;2024-02-26T00:41:00;5.97;;;2.17;;
37655;SDS011;23498;50.958;3.124;2024-02-26T00:43:50;4.68;;;2.45;;
37655;SDS011;23498;50.958;3.124;2024-02-26T00:46:37;4.35;;;2.50;;
37655;SDS011;23498;50.958;3.124;2024-02-26T00:49:46;4.20;;;2.60;;
37655;SDS011;23498;50.958;3.124;2024-02-26T00:52:22;4.82;;;2.50;;
37655;SDS011;23498;50.958;3.124;2024-02-26T00:55:19;5.35;;;2.72;;
37655;SDS011;23498;50.958;3.124;2024-02-26T00:58:01;3.95;;;2.30;;
37655;SDS011;23498;50.958;3.124;2024-02-26T01:00:42;4.65;;;2.92;;
37655;SDS011;23498;50.958;3.124;2024-02-26T01:03:48;4.82;;;2.80;;
37655;SDS011;23498;50.958;3.124;2024-02-26T01:06:31;6.20;;;2.92;;
37655;SDS011;23498;50.958;3.124;2024-02-26T01:09:04;5.47;;;3.08;;
37655;SDS011;23498;50.958;3.124;2024-02-26T01:11:30;10.55;;;2.80;;
37655;SDS011;23498;50.958;3.124;2024-02-26T01:14:06;6.80;;;2.58;;
37655;SDS011;23498;50.958;3.124;2024-02-26T01:16:58;6.65;;;3.20;;
37655;SDS011;23498;50.958;3.124;2024-02-26T01:19:56;5.00;;;2.70;;
37655;SDS011;23498;50.958;3.124;2024-02-26T01:22:29;6.50;;;2.88;;
37655;SDS011;23498;50.958;3.124;2024-02-26T01:25:09;6.47;;;3.10;;
37655;SDS011;23498;50.958;3.124;2024-02-26T01:27:39;5.85;;;3.15;;
37655;SDS011;23498;50.958;3.124;2024-02-26T01:30:08;4.97;;;2.65;;
37655;SDS011;23498;50.958;3.124;2024-02-26T01:32:44;4.65;;;2.88;;
37655;SDS011;23498;50.958;3.124;2024-02-26T01:35:17;4.55;;;2.90;;
37655;SDS011;23498;50.958;3.124;2024-02-26T01:38:16;5.70;;;3.30;;
37655;SDS011;23498;50.958;3.124;2024-02-26T01:41:10;6.68;;;3.13;;
37655;SDS011;23498;50.958;3.124;2024-02-26T01:46:45;6.28;;;3.30;;
37655;SDS011;23498;50.958;3.124;2024-02-26T01:49:17;6.40;;;3.30;;
37655;SDS011;23498;50.958;3.124;2024-02-26T01:51:49;5.80;;;3.50;;
37655;SDS011;23498;50.958;3.124;2024-02-26T01:57:15;5.68;;;3.38;;
37655;SDS011;23498;50.958;3.124;2024-02-26T02:00:24;6.53;;;3.67;;
37655;SDS011;23498;50.958;3.124;2024-02-26T02:02:54;8.27;;;3.80;;
37655;SDS011;23498;50.958;3.124;2024-02-26T02:08:30;5.43;;;3.30;;
37655;SDS011;23498;50.958;3.124;2024-02-26T02:11:16;5.93;;;2.90;;
37655;SDS011;23498;50.958;3.124;2024-02-26T02:16:56;8.68;;;4.05;;
37655;SDS011;23498;50.958;3.124;2024-02-26T02:19:49;5.68;;;3.50;;
37655;SDS011;23498;50.958;3.124;2024-02-26T02:22:18;7.00;;;3.80;;
37655;SDS011;23498;50.958;3.124;2024-02-26T02:24:48;8.95;;;3.50;;
37655;SDS011;23498;50.958;3.124;2024-02-26T02:27:18;4.95;;;3.50;;
37655;SDS011;23498;50.958;3.124;2024-02-26T02:30:07;6.57;;;3.55;;
37655;SDS011;23498;50.958;3.124;2024-02-26T02:32:50;5.60;;;3.75;;
37655;SDS011;23498;50.958;3.124;2024-02-26T02:35:20;6.30;;;3.65;;
37655;SDS011;23498;50.958;3.124;2024-02-26T02:38:10;5.07;;;3.67;;
37655;SDS011;23498;50.958;3.124;2024-02-26T02:40:37;5.32;;;4.30;;
37655;SDS011;23498;50.958;3.124;2024-02-26T02:43:27;7.23;;;4.50;;
37655;SDS011;23498;50.958;3.124;2024-02-26T02:46:22;6.47;;;4.60;;
37655;SDS011;23498;50.958;3.124;2024-02-26T02:48:49;9.25;;;4.60;;
37655;SDS011;23498;50.958;3.124;2024-02-26T02:51:16;8.20;;;5.25;;
37655;SDS011;23498;50.958;3.124;2024-02-26T02:54:22;7.97;;;4.90;;
37655;SDS011;23498;50.958;3.124;2024-02-26T02:56:48;8.23;;;4.80;;
37655;SDS011;23498;50.958;3.124;2024-02-26T02:59:17;7.10;;;5.18;;
37655;SDS011;23498;50.958;3.124;2024-02-26T03:01:59;10.35;;;5.05;;
37655;SDS011;23498;50.958;3.124;2024-02-26T03:04:49;8.82;;;4.78;;
37655;SDS011;23498;50.958;3.124;2024-02-26T03:07:21;6.10;;;4.28;;
37655;SDS011;23498;50.958;3.124;2024-02-26T03:10:07;5.78;;;4.55;;
37655;SDS011;23498;50.958;3.124;2024-02-26T03:12:40;7.93;;;4.80;;
37655;SDS011;23498;50.958;3.124;2024-02-26T03:15:09;7.82;;;4.90;;
37655;SDS011;23498;50.958;3.124;2024-02-26T03:17:37;7.35;;;4.68;;
37655;SDS011;23498;50.958;3.124;2024-02-26T03:20:05;9.02;;;4.75;;
37655;SDS011;23498;50.958;3.124;2024-02-26T03:22:33;6.38;;;4.75;;
37655;SDS011;23498;50.958;3.124;2024-02-26T03:25:01;5.88;;;4.72;;
37655;SDS011;23498;50.958;3.124;2024-02-26T03:27:30;8.60;;;4.82;;
37655;SDS011;23498;50.958;3.124;2024-02-26T03:29:59;8.30;;;4.70;;
37655;SDS011;23498;50.958;3.124;2024-02-26T03:32:47;7.15;;;5.07;;
37655;SDS011;23498;50.958;3.124;2024-02-26T03:35:16;6.22;;;4.53;;
37655;SDS011;23498;50.958;3.124;2024-02-26T03:37:50;6.00;;;4.03;;
37655;SDS011;23498;50.958;3.124;2024-02-26T03:40:21;8.05;;;5.20;;
37655;SDS011;23498;50.958;3.124;2024-02-26T03:42:48;8.55;;;5.90;;
37655;SDS011;23498;50.958;3.124;2024-02-26T03:45:36;10.15;;;7.70;;
37655;SDS011;23498;50.958;3.124;2024-02-26T03:48:15;10.63;;;8.70;;
37655;SDS011;23498;50.958;3.124;2024-02-26T03:50:55;12.93;;;10.23;;
37655;SDS011;23498;50.958;3.124;2024-02-26T03:53:23;14.48;;;10.88;;
37655;SDS011;23498;50.958;3.124;2024-02-26T03:55:55;13.82;;;11.60;;
37655;SDS011;23498;50.958;3.124;2024-02-26T03:58:26;15.32;;;12.90;;
37655;SDS011;23498;50.958;3.124;2024-02-26T04:01:38;15.77;;;11.77;;
37655;SDS011;23498;50.958;3.124;2024-02-26T04:04:08;15.55;;;12.40;;
37655;SDS011;23498;50.958;3.124;2024-02-26T04:06:38;16.45;;;13.18;;
37655;SDS011;23498;50.958;3.124;2024-02-26T04:09:25;15.13;;;12.00;;
37655;SDS011;23498;50.958;3.124;2024-02-26T04:11:57;15.90;;;12.57;;
37655;SDS011;23498;50.958;3.124;2024-02-26T04:14:57;16.23;;;13.20;;
37655;SDS011;23498;50.958;3.124;2024-02-26T04:17:58;17.67;;;13.30;;
37655;SDS011;23498;50.958;3.124;2024-02-26T04:20:24;16.52;;;14.02;;
37655;SDS011;23498;50.958;3.124;2024-02-26T04:23:06;20.95;;;14.52;;
37655;SDS011;23498;50.958;3.124;2024-02-26T04:26:04;19.08;;;14.82;;
37655;SDS011;23498;50.958;3.124;2024-02-26T04:28:49;19.52;;;15.48;;
37655;SDS011;23498;50.958;3.124;2024-02-26T04:31:16;18.52;;;14.93;;
37655;SDS011;23498;50.958;3.124;2024-02-26T04:33:50;19.05;;;16.17;;
37655;SDS011;23498;50.958;3.124;2024-02-26T04:36:27;23.27;;;16.90;;
37655;SDS011;23498;50.958;3.124;2024-02-26T04:39:14;18.35;;;15.63;;
37655;SDS011;23498;50.958;3.124;2024-02-26T04:41:40;19.55;;;16.25;;
37655;SDS011;23498;50.958;3.124;2024-02-26T04:44:06;19.13;;;15.43;;
37655;SDS011;23498;50.958;3.124;2024-02-26T04:46:32;20.45;;;15.73;;
37655;SDS011;23498;50.958;3.124;2024-02-26T04:49:02;21.25;;;16.45;;
37655;SDS011;23498;50.958;3.124;2024-02-26T04:51:30;21.08;;;16.95;;
37655;SDS011;23498;50.958;3.124;2024-02-26T04:53:56;19.02;;;15.70;;
37655;SDS011;23498;50.958;3.124;2024-02-26T04:56:27;21.35;;;16.23;;
37655;SDS011;23498;50.958;3.124;2024-02-26T04:58:58;19.90;;;14.88;;
37655;SDS011;23498;50.958;3.124;2024-02-26T05:01:24;17.70;;;14.18;;
37655;SDS011;23498;50.958;3.124;2024-02-26T05:04:11;18.77;;;14.88;;
37655;SDS011;23498;50.958;3.124;2024-02-26T05:06:41;17.15;;;14.52;;
37655;SDS011;23498;50.958;3.124;2024-02-26T05:09:31;17.95;;;15.05;;
37655;SDS011;23498;50.958;3.124;2024-02-26T05:11:59;18.73;;;15.13;;
37655;SDS011;23498;50.958;3.124;2024-02-26T05:14:26;18.85;;;14.88;;
37655;SDS011;23498;50.958;3.124;2024-02-26T05:16:57;17.27;;;13.88;;
37655;SDS011;23498;50.958;3.124;2024-02-26T05:19:24;17.70;;;13.88;;
37655;SDS011;23498;50.958;3.124;2024-02-26T05:21:54;16.25;;;13.32;;
37655;SDS011;23498;50.958;3.124;2024-02-26T05:24:37;16.25;;;12.93;;
37655;SDS011;23498;50.958;3.124;2024-02-26T05:27:07;15.20;;;12.23;;
37655;SDS011;23498;50.958;3.124;2024-02-26T05:29:37;14.90;;;11.70;;
37655;SDS011;23498;50.958;3.124;2024-02-26T05:32:08;14.52;;;11.60;;
37655;SDS011;23498;50.958;3.124;2024-02-26T05:34:34;13.65;;;11.20;;
37655;SDS011;23498;50.958;3.124;2024-02-26T05:37:02;15.48;;;11.77;;
37655;SDS011;23498;50.958;3.124;2024-02-26T05:39:29;12.93;;;11.20;;
37655;SDS011;23498;50.958;3.124;2024-02-26T05:41:55;13.05;;;10.52;;
37655;SDS011;23498;50.958;3.124;2024-02-26T05:44:44;14.82;;;11.32;;
37655;SDS011;23498;50.958;3.124;2024-02-26T05:47:11;14.68;;;9.93;;
37655;SDS011;23498;50.958;3.124;2024-02-26T05:49:40;13.40;;;10.57;;
37655;SDS011;23498;50.958;3.124;2024-02-26T05:52:06;12.30;;;9.80;;
37655;SDS011;23498;50.958;3.124;2024-02-26T05:54:34;13.52;;;9.32;;
37655;SDS011;23498;50.958;3.124;2024-02-26T05:57:04;11.90;;;9.50;;
37655;SDS011;23498;50.958;3.124;2024-02-26T05:59:37;12.25;;;8.77;;
37655;SDS011;23498;50.958;3.124;2024-02-26T06:02:12;11.40;;;8.98;;
37655;SDS011;23498;50.958;3.124;2024-02-26T06:04:43;12.82;;;8.50;;
37655;SDS011;23498;50.958;3.124;2024-02-26T06:07:09;12.38;;;9.15;;
37655;SDS011;23498;50.958;3.124;2024-02-26T06:09:36;14.02;;;9.93;;
37655;SDS011;23498;50.958;3.124;2024-02-26T06:12:03;12.20;;;9.45;;
37655;SDS011;23498;50.958;3.124;2024-02-26T06:14:30;13.15;;;9.20;;
37655;SDS011;23498;50.958;3.124;2024-02-26T06:16:57;13.45;;;9.15;;
37655;SDS011;23498;50.958;3.124;2024-02-26T06:19:24;12.68;;;9.43;;
37655;SDS011;23498;50.958;3.124;2024-02-26T06:21:50;12.82;;;9.50;;
37655;SDS011;23498;50.958;3.124;2024-02-26T06:24:18;11.20;;;8.77;;
37655;SDS011;23498;50.958;3.124;2024-02-26T06:26:46;13.18;;;9.45;;
37655;SDS011;23498;50.958;3.124;2024-02-26T06:29:13;13.95;;;9.63;;
37655;SDS011;23498;50.958;3.124;2024-02-26T06:31:40;12.98;;;9.63;;
37655;SDS011;23498;50.958;3.124;2024-02-26T06:34:10;15.07;;;9.50;;
37655;SDS011;23498;50.958;3.124;2024-02-26T06:36:36;13.75;;;10.00;;
37655;SDS011;23498;50.958;3.124;2024-02-26T06:39:02;14.68;;;10.18;;
37655;SDS011;23498;50.958;3.124;2024-02-26T06:41:30;15.07;;;10.70;;
37655;SDS011;23498;50.958;3.124;2024-02-26T06:43:57;13.57;;;9.63;;
37655;SDS011;23498;50.958;3.124;2024-02-26T06:46:23;15.43;;;10.40;;
37655;SDS011;23498;50.958;3.124;2024-02-26T06:48:49;14.48;;;10.75;;
37655;SDS011;23498;50.958;3.124;2024-02-26T06:51:15;14.85;;;10.85;;
37655;SDS011;23498;50.958;3.124;2024-02-26T06:53:42;14.85;;;10.48;;
37655;SDS011;23498;50.958;3.124;2024-02-26T06:56:08;15.15;;;10.48;;
37655;SDS011;23498;50.958;3.124;2024-02-26T06:58:34;14.63;;;11.40;;
37655;SDS011;23498;50.958;3.124;2024-02-26T07:01:00;13.95;;;10.75;;
37655;SDS011;23498;50.958;3.124;2024-02-26T07:03:26;14.48;;;10.60;;
37655;SDS011;23498;50.958;3.124;2024-02-26T07:05:52;17.33;;;11.35;;
37655;SDS011;23498;50.958;3.124;2024-02-26T07:08:18;16.55;;;11.25;;
37655;SDS011;23498;50.958;3.124;2024-02-26T07:10:44;15.90;;;11.05;;
37655;SDS011;23498;50.958;3.124;2024-02-26T07:13:10;16.15;;;10.63;;
37655;SDS011;23498;50.958;3.124;2024-02-26T07:15:36;14.60;;;10.20;;
37655;SDS011;23498;50.958;3.124;2024-02-26T07:18:02;13.82;;;10.05;;
37655;SDS011;23498;50.958;3.124;2024-02-26T07:20:31;13.98;;;10.18;;
37655;SDS011;23498;50.958;3.124;2024-02-26T07:22:58;14.35;;;9.85;;
37655;SDS011;23498;50.958;3.124;2024-02-26T07:25:24;12.32;;;9.27;;
37655;SDS011;23498;50.958;3.124;2024-02-26T07:27:50;13.18;;;9.65;;
37655;SDS011;23498;50.958;3.124;2024-02-26T07:30:17;11.40;;;8.38;;
37655;SDS011;23498;50.958;3.124;2024-02-26T07:32:43;13.30;;;8.50;;
37655;SDS011;23498;50.958;3.124;2024-02-26T07:35:09;13.73;;;8.73;;
37655;SDS011;23498;50.958;3.124;2024-02-26T07:37:37;12.55;;;8.15;;
37655;SDS011;23498;50.958;3.124;2024-02-26T07:40:17;11.95;;;8.32;;
37655;SDS011;23498;50.958;3.124;2024-02-26T07:42:45;10.32;;;7.65;;
37655;SDS011;23498;50.958;3.124;2024-02-26T07:45:17;11.13;;;7.20;;
37655;SDS011;23498;50.958;3.124;2024-02-26T07:47:46;9.95;;;6.88;;
37655;SDS011;23498;50.958;3.124;2024-02-26T07:50:13;9.88;;;6.93;;
37655;SDS011;23498;50.958;3.124;2024-02-26T07:52:39;9.90;;;6.32;;
37655;SDS011;23498;50.958;3.124;2024-02-26T07:55:07;7.78;;;5.47;;
37655;SDS011;23498;50.958;3.124;2024-02-26T07:57:33;8.95;;;5.97;;
37655;SDS011;23498;50.958;3.124;2024-02-26T08:00:02;9.07;;;5.70;;
37655;SDS011;23498;50.958;3.124;2024-02-26T08:02:28;8.25;;;5.78;;
37655;SDS011;23498;50.958;3.124;2024-02-26T08:04:55;6.95;;;4.82;;
37655;SDS011;23498;50.958;3.124;2024-02-26T08:07:21;7.75;;;5.35;;
37655;SDS011;23498;50.958;3.124;2024-02-26T08:09:49;8.93;;;5.28;;
37655;SDS011;23498;50.958;3.124;2024-02-26T08:12:18;9.85;;;5.38;;
37655;SDS011;23498;50.958;3.124;2024-02-26T08:14:44;7.78;;;5.68;;
37655;SDS011;23498;50.958;3.124;2024-02-26T08:17:32;6.40;;;4.60;;
37655;SDS011;23498;50.958;3.124;2024-02-26T08:19:58;7.35;;;4.60;;
37655;SDS011;23498;50.958;3.124;2024-02-26T08:22:29;7.78;;;4.88;;
37655;SDS011;23498;50.958;3.124;2024-02-26T08:24:58;6.82;;;5.00;;
37655;SDS011;23498;50.958;3.124;2024-02-26T08:27:24;7.97;;;5.13;;
37655;SDS011;23498;50.958;3.124;2024-02-26T08:29:52;8.45;;;4.97;;
37655;SDS011;23498;50.958;3.124;2024-02-26T08:32:18;6.68;;;4.80;;
37655;SDS011;23498;50.958;3.124;2024-02-26T08:34:55;9.52;;;5.65;;
37655;SDS011;23498;50.958;3.124;2024-02-26T08:37:39;8.10;;;5.20;;
37655;SDS011;23498;50.958;3.124;2024-02-26T08:40:09;9.77;;;5.78;;
37655;SDS011;23498;50.958;3.124;2024-02-26T08:42:38;8.75;;;5.32;;
37655;SDS011;23498;50.958;3.124;2024-02-26T08:45:09;8.25;;;5.60;;
37655;SDS011;23498;50.958;3.124;2024-02-26T08:47:36;8.00;;;5.38;;
37655;SDS011;23498;50.958;3.124;2024-02-26T08:50:04;7.25;;;4.97;;
37655;SDS011;23498;50.958;3.124;2024-02-26T08:52:32;7.95;;;4.60;;
37655;SDS011;23498;50.958;3.124;2024-02-26T08:55:01;8.52;;;5.47;;
37655;SDS011;23498;50.958;3.124;2024-02-26T08:57:40;7.05;;;5.05;;
37655;SDS011;23498;50.958;3.124;2024-02-26T09:00:07;8.25;;;5.30;;
37655;SDS011;23498;50.958;3.124;2024-02-26T09:02:36;10.82;;;6.07;;
37655;SDS011;23498;50.958;3.124;2024-02-26T09:05:04;8.80;;;5.90;;
37655;SDS011;23498;50.958;3.124;2024-02-26T09:07:30;7.85;;;5.32;;
37655;SDS011;23498;50.958;3.124;2024-02-26T09:09:56;8.98;;;5.13;;
37655;SDS011;23498;50.958;3.124;2024-02-26T09:12:22;9.57;;;6.05;;
37655;SDS011;23498;50.958;3.124;2024-02-26T09:14:49;7.90;;;5.75;;
37655;SDS011;23498;50.958;3.124;2024-02-26T09:17:18;9.52;;;6.38;;
37655;SDS011;23498;50.958;3.124;2024-02-26T09:19:44;10.30;;;6.25;;
37655;SDS011;23498;50.958;3.124;2024-02-26T09:22:10;9.65;;;7.28;;
37655;SDS011;23498;50.958;3.124;2024-02-26T09:24:36;9.48;;;6.45;;
37655;SDS011;23498;50.958;3.124;2024-02-26T09:27:02;11.95;;;6.50;;
37655;SDS011;23498;50.958;3.124;2024-02-26T09:29:28;11.60;;;7.28;;
37655;SDS011;23498;50.958;3.124;2024-02-26T09:31:54;12.73;;;8.20;;
37655;SDS011;23498;50.958;3.124;2024-02-26T09:34:22;12.73;;;7.95;;
37655;SDS011;23498;50.958;3.124;2024-02-26T09:40:25;15.65;;;9.73;;
37655;SDS011;23498;50.958;3.124;2024-02-26T09:43:09;15.43;;;9.07;;
37655;SDS011;23498;50.958;3.124;2024-02-26T09:45:55;16.02;;;9.60;;
37655;SDS011;23498;50.958;3.124;2024-02-26T09:48:40;16.40;;;9.50;;
37655;SDS011;23498;50.958;3.124;2024-02-26T09:51:09;15.60;;;9.63;;
37655;SDS011;23498;50.958;3.124;2024-02-26T09:53:49;16.55;;;9.80;;
37655;SDS011;23498;50.958;3.124;2024-02-26T09:56:20;17.83;;;11.07;;
37655;SDS011;23498;50.958;3.124;2024-02-26T09:58:47;18.35;;;11.48;;
37655;SDS011;23498;50.958;3.124;2024-02-26T10:01:27;18.13;;;10.65;;
37655;SDS011;23498;50.958;3.124;2024-02-26T10:04:05;19.35;;;11.25;;
37655;SDS011;23498;50.958;3.124;2024-02-26T10:15:57;21.48;;;11.80;;
37655;SDS011;23498;50.958;3.124;2024-02-26T10:18:59;22.85;;;12.52;;
37655;SDS011;23498;50.958;3.124;2024-02-26T10:21:26;20.55;;;12.35;;
37655;SDS011;23498;50.958;3.124;2024-02-26T10:24:13;19.73;;;12.02;;
37655;SDS011;23498;50.958;3.124;2024-02-26T10:26:45;18.25;;;10.73;;
37655;SDS011;23498;50.958;3.124;2024-02-26T10:29:36;21.02;;;12.13;;
37655;SDS011;23498;50.958;3.124;2024-02-26T10:34:29;18.90;;;10.82;;
37655;SDS011;23498;50.958;3.124;2024-02-26T10:37:00;21.90;;;12.18;;
37655;SDS011;23498;50.958;3.124;2024-02-26T10:39:28;24.20;;;13.47;;
37655;SDS011;23498;50.958;3.124;2024-02-26T10:41:59;20.42;;;12.82;;
37655;SDS011;23498;50.958;3.124;2024-02-26T10:44:45;20.30;;;12.25;;
37655;SDS011;23498;50.958;3.124;2024-02-26T10:47:21;20.90;;;12.50;;
37655;SDS011;23498;50.958;3.124;2024-02-26T10:50:10;20.52;;;12.07;;
37655;SDS011;23498;50.958;3.124;2024-02-26T10:52:45;23.13;;;12.98;;
37655;SDS011;23498;50.958;3.124;2024-02-26T10:55:16;20.20;;;13.18;;
37655;SDS011;23498;50.958;3.124;2024-02-26T11:03:30;21.17;;;13.05;;
37655;SDS011;23498;50.958;3.124;2024-02-26T11:06:01;18.20;;;11.57;;
37655;SDS011;23498;50.958;3.124;2024-02-26T11:08:35;18.77;;;11.15;;
37655;SDS011;23498;50.958;3.124;2024-02-26T11:11:01;21.13;;;11.82;;
37655;SDS011;23498;50.958;3.124;2024-02-26T11:13:32;19.25;;;11.25;;
37655;SDS011;23498;50.958;3.124;2024-02-26T11:16:11;19.98;;;11.27;;
37655;SDS011;23498;50.958;3.124;2024-02-26T11:19:13;18.90;;;10.73;;
37655;SDS011;23498;50.958;3.124;2024-02-26T11:21:59;16.88;;;10.77;;
37655;SDS011;23498;50.958;3.124;2024-02-26T11:24:29;18.55;;;11.45;;
37655;SDS011;23498;50.958;3.124;2024-02-26T11:26:58;16.80;;;10.10;;
37655;SDS011;23498;50.958;3.124;2024-02-26T11:29:27;16.25;;;10.95;;
37655;SDS011;23498;50.958;3.124;2024-02-26T11:31:58;16.73;;;10.70;;
37655;SDS011;23498;50.958;3.124;2024-02-26T11:34:40;18.67;;;9.75;;
37655;SDS011;23498;50.958;3.124;2024-02-26T11:37:31;15.63;;;10.85;;
37655;SDS011;23498;50.958;3.124;2024-02-26T11:40:10;17.42;;;10.50;;
37655;SDS011;23498;50.958;3.124;2024-02-26T11:42:45;17.38;;;10.48;;
37655;SDS011;23498;50.958;3.124;2024-02-26T11:48:14;15.88;;;10.27;;
37655;SDS011;23498;50.958;3.124;2024-02-26T11:51:20;12.93;;;9.77;;
37655;SDS011;23498;50.958;3.124;2024-02-26T11:53:57;13.38;;;8.93;;
37655;SDS011;23498;50.958;3.124;2024-02-26T11:56:26;14.77;;;9.30;;
37655;SDS011;23498;50.958;3.124;2024-02-26T11:58:57;15.00;;;9.65;;
37655;SDS011;23498;50.958;3.124;2024-02-26T12:01:36;14.77;;;9.50;;
37655;SDS011;23498;50.958;3.124;2024-02-26T12:04:20;14.05;;;9.07;;
37655;SDS011;23498;50.958;3.124;2024-02-26T12:06:50;12.93;;;9.23;;
37655;SDS011;23498;50.958;3.124;2024-02-26T12:22:25;10.32;;;8.45;;
37655;SDS011;23498;50.958;3.124;2024-02-26T12:25:22;12.82;;;7.88;;
37655;SDS011;23498;50.958;3.124;2024-02-26T12:27:49;11.00;;;7.90;;
37655;SDS011;23498;50.958;3.124;2024-02-26T12:30:16;11.57;;;7.60;;
37655;SDS011;23498;50.958;3.124;2024-02-26T12:32:46;10.57;;;7.30;;
37655;SDS011;23498;50.958;3.124;2024-02-26T12:35:13;11.15;;;7.45;;
37655;SDS011;23498;50.958;3.124;2024-02-26T12:37:42;9.55;;;6.75;;
37655;SDS011;23498;50.958;3.124;2024-02-26T12:40:26;10.80;;;7.32;;
37655;SDS011;23498;50.958;3.124;2024-02-26T12:42:55;9.23;;;6.38;;
37655;SDS011;23498;50.958;3.124;2024-02-26T12:45:24;9.18;;;6.70;;
37655;SDS011;23498;50.958;3.124;2024-02-26T12:47:56;7.82;;;6.10;;
37655;SDS011;23498;50.958;3.124;2024-02-26T12:50:25;11.05;;;6.50;;
37655;SDS011;23498;50.958;3.124;2024-02-26T12:56:36;9.50;;;5.80;;
37655;SDS011;23498;50.958;3.124;2024-02-26T13:02:28;8.73;;;5.68;;
37655;SDS011;23498;50.958;3.124;2024-02-26T13:04:54;8.13;;;5.82;;
37655;SDS011;23498;50.958;3.124;2024-02-26T13:14:20;7.68;;;5.95;;
37655;SDS011;23498;50.958;3.124;2024-02-26T13:16:56;12.45;;;6.03;;
37655;SDS011;23498;50.958;3.124;2024-02-26T13:19:22;6.20;;;4.72;;
37655;SDS011;23498;50.958;3.124;2024-02-26T13:21:51;7.32;;;5.30;;
37655;SDS011;23498;50.958;3.124;2024-02-26T13:24:21;7.72;;;5.60;;
37655;SDS011;23498;50.958;3.124;2024-02-26T13:26:59;8.38;;;6.22;;
37655;SDS011;23498;50.958;3.124;2024-02-26T13:32:35;7.70;;;5.40;;
37655;SDS011;23498;50.958;3.124;2024-02-26T13:35:13;6.93;;;5.25;;
37655;SDS011;23498;50.958;3.124;2024-02-26T13:37:55;7.13;;;5.25;;
37655;SDS011;23498;50.958;3.124;2024-02-26T13:40:47;7.35;;;5.32;;
37655;SDS011;23498;50.958;3.124;2024-02-26T13:43:13;6.95;;;5.35;;
37655;SDS011;23498;50.958;3.124;2024-02-26T13:45:39;7.03;;;5.32;;
37655;SDS011;23498;50.958;3.124;2024-02-26T13:48:06;7.25;;;5.25;;
37655;SDS011;23498;50.958;3.124;2024-02-26T13:50:32;6.32;;;5.15;;
37655;SDS011;23498;50.958;3.124;2024-02-26T13:53:05;8.55;;;4.95;;
37655;SDS011;23498;50.958;3.124;2024-02-26T13:55:59;8.13;;;5.13;;
37655;SDS011;23498;50.958;3.124;2024-02-26T13:58:48;8.00;;;5.20;;
37655;SDS011;23498;50.958;3.124;2024-02-26T14:01:28;9.35;;;5.75;;
37655;SDS011;23498;50.958;3.124;2024-02-26T14:03:56;10.60;;;6.10;;
37655;SDS011;23498;50.958;3.124;2024-02-26T14:06:22;8.40;;;5.68;;
37655;SDS011;23498;50.958;3.124;2024-02-26T14:08:49;9.82;;;6.30;;
37655;SDS011;23498;50.958;3.124;2024-02-26T14:11:15;7.65;;;5.68;;
37655;SDS011;23498;50.958;3.124;2024-02-26T14:13:41;7.53;;;5.30;;
37655;SDS011;23498;50.958;3.124;2024-02-26T14:16:07;8.25;;;5.65;;
37655;SDS011;23498;50.958;3.124;2024-02-26T14:18:35;7.80;;;5.72;;
37655;SDS011;23498;50.958;3.124;2024-02-26T14:21:01;8.15;;;5.75;;
37655;SDS011;23498;50.958;3.124;2024-02-26T14:27:16;7.53;;;5.45;;
37655;SDS011;23498;50.958;3.124;2024-02-26T14:32:52;7.53;;;5.72;;
37655;SDS011;23498;50.958;3.124;2024-02-26T14:35:21;7.95;;;5.68;;
37655;SDS011;23498;50.958;3.124;2024-02-26T14:37:55;8.88;;;6.30;;
37655;SDS011;23498;50.958;3.124;2024-02-26T14:40:39;8.10;;;6.13;;
37655;SDS011;23498;50.958;3.124;2024-02-26T14:43:05;8.90;;;5.60;;
37655;SDS011;23498;50.958;3.124;2024-02-26T14:45:36;7.65;;;6.28;;
37655;SDS011;23498;50.958;3.124;2024-02-26T14:48:05;8.07;;;6.07;;
37655;SDS011;23498;50.958;3.124;2024-02-26T14:50:32;10.07;;;6.50;;
37655;SDS011;23498;50.958;3.124;2024-02-26T14:52:59;7.80;;;5.82;;
37655;SDS011;23498;50.958;3.124;2024-02-26T14:55:27;8.65;;;6.38;;
37655;SDS011;23498;50.958;3.124;2024-02-26T14:57:53;11.75;;;7.45;;
37655;SDS011;23498;50.958;3.124;2024-02-26T15:00:19;9.15;;;6.35;;
37655;SDS011;23498;50.958;3.124;2024-02-26T15:02:47;10.65;;;6.25;;
37655;SDS011;23498;50.958;3.124;2024-02-26T15:08:20;10.38;;;7.68;;
37655;SDS011;23498;50.958;3.124;2024-02-26T15:10:46;9.45;;;7.07;;
37655;SDS011;23498;50.958;3.124;2024-02-26T15:13:16;10.65;;;7.07;;
37655;SDS011;23498;50.958;3.124;2024-02-26T15:18:50;8.75;;;6.85;;
37655;SDS011;23498;50.958;3.124;2024-02-26T15:21:18;9.52;;;6.72;;
37655;SDS011;23498;50.958;3.124;2024-02-26T15:23:56;8.90;;;6.80;;
37655;SDS011;23498;50.958;3.124;2024-02-26T15:26:25;9.48;;;7.47;;
37655;SDS011;23498;50.958;3.124;2024-02-26T15:28:51;11.13;;;7.43;;
37655;SDS011;23498;50.958;3.124;2024-02-26T15:31:19;9.75;;;7.15;;
37655;SDS011;23498;50.958;3.124;2024-02-26T15:33:45;11.27;;;7.47;;
37655;SDS011;23498;50.958;3.124;2024-02-26T15:36:11;11.48;;;8.00;;
37655;SDS011;23498;50.958;3.124;2024-02-26T15:38:37;10.73;;;8.05;;
37655;SDS011;23498;50.958;3.124;2024-02-26T15:41:11;9.43;;;7.68;;
37655;SDS011;23498;50.958;3.124;2024-02-26T15:43:38;9.45;;;7.22;;
37655;SDS011;23498;50.958;3.124;2024-02-26T15:46:07;10.45;;;7.82;;
37655;SDS011;23498;50.958;3.124;2024-02-26T15:48:36;9.65;;;7.00;;
37655;SDS011;23498;50.958;3.124;2024-02-26T15:57:29;11.90;;;8.20;;
37655;SDS011;23498;50.958;3.124;2024-02-26T16:00:05;12.85;;;8.85;;
37655;SDS011;23498;50.958;3.124;2024-02-26T16:02:39;11.40;;;7.90;;
37655;SDS011;23498;50.958;3.124;2024-02-26T16:05:05;10.95;;;7.93;;
37655;SDS011;23498;50.958;3.124;2024-02-26T16:07:37;15.75;;;10.00;;
37655;SDS011;23498;50.958;3.124;2024-02-26T16:12:41;16.45;;;9.38;;
37655;SDS011;23498;50.958;3.124;2024-02-26T16:15:11;12.43;;;8.80;;
37655;SDS011;23498;50.958;3.124;2024-02-26T16:17:44;13.63;;;9.63;;
37655;SDS011;23498;50.958;3.124;2024-02-26T16:20:14;12.57;;;10.80;;
37655;SDS011;23498;50.958;3.124;2024-02-26T16:22:42;12.15;;;9.68;;
37655;SDS011;23498;50.958;3.124;2024-02-26T16:25:11;12.98;;;9.75;;
37655;SDS011;23498;50.958;3.124;2024-02-26T16:27:37;12.05;;;7.35;;
37655;SDS011;23498;50.958;3.124;2024-02-26T16:30:11;10.93;;;6.75;;
37655;SDS011;23498;50.958;3.124;2024-02-26T16:32:38;20.83;;;13.82;;
37655;SDS011;23498;50.958;3.124;2024-02-26T16:35:05;9.82;;;7.60;;
37655;SDS011;23498;50.958;3.124;2024-02-26T16:37:31;10.82;;;7.75;;
37655;SDS011;23498;50.958;3.124;2024-02-26T16:39:58;9.88;;;6.53;;
37655;SDS011;23498;50.958;3.124;2024-02-26T16:42:26;9.52;;;7.13;;
37655;SDS011;23498;50.958;3.124;2024-02-26T16:44:52;10.48;;;7.30;;